createdAt,value
2022-12-03T00:00:28.575Z,-0.90
2022-12-03T00:03:21.321Z,-1.00
2022-12-03T00:05:54.302Z,-1.00
2022-12-03T00:08:26.849Z,-1.00
2022-12-03T00:10:59.825Z,-1.00
2022-12-03T00:13:32.369Z,-1.00
2022-12-03T00:16:05.540Z,-1.10
2022-12-03T00:18:38.133Z,-1.00
2022-12-03T00:21:10.953Z,-1.10
2022-12-03T00:23:43.477Z,-0.70
2022-12-03T00:26:16.340Z,-1.10
2022-12-03T00:28:48.936Z,-1.10
2022-12-03T00:31:23.628Z,-1.10
2022-12-03T00:33:56.312Z,-1.10
2022-12-03T00:36:29.440Z,-1.10
2022-12-03T00:39:02.278Z,-1.10
2022-12-03T00:41:35.096Z,-1.10
2022-12-03T00:44:07.959Z,-1.10
2022-12-03T00:46:41.271Z,-1.10
2022-12-03T00:49:13.919Z,-1.00
2022-12-03T00:51:46.972Z,-1.00
2022-12-03T00:54:19.490Z,-1.10
2022-12-03T00:56:52.539Z,-1.10
2022-12-03T00:59:25.098Z,-1.00
2022-12-03T01:01:58.106Z,-1.10
2022-12-03T01:04:30.771Z,-1.00
2022-12-03T01:07:03.761Z,-1.00
2022-12-03T01:09:36.335Z,-1.00
2022-12-03T01:12:09.191Z,-1.10
2022-12-03T01:14:41.795Z,-1.10
2022-12-03T01:17:14.655Z,-0.80
2022-12-03T01:19:48.597Z,-1.10
2022-12-03T01:22:21.702Z,-1.10
2022-12-03T01:24:54.530Z,-1.10
2022-12-03T01:27:27.595Z,-1.20
2022-12-03T01:30:00.159Z,-1.10
2022-12-03T01:32:32.923Z,-1.20
2022-12-03T01:35:05.956Z,-1.20
2022-12-03T01:37:38.782Z,-1.20
2022-12-03T01:40:16.287Z,-1.20
2022-12-03T01:42:49.067Z,-1.10
2022-12-03T01:45:23.810Z,-1.20
2022-12-03T01:47:56.668Z,-1.10
2022-12-03T01:50:32.711Z,-1.10
2022-12-03T01:53:05.917Z,-1.10
2022-12-03T01:55:38.449Z,-1.10
2022-12-03T01:58:14.755Z,-1.20
2022-12-03T02:00:47.265Z,-1.20
2022-12-03T02:03:24.266Z,-1.20
2022-12-03T02:05:57.091Z,-1.10
2022-12-03T02:08:35.106Z,-1.10
2022-12-03T02:11:20.283Z,-1.00
2022-12-03T02:13:57.979Z,-1.10
2022-12-03T02:16:31.134Z,-1.10
2022-12-03T02:19:06.691Z,-1.00
2022-12-03T02:22:01.407Z,-1.00
2022-12-03T02:24:45.742Z,-1.10
2022-12-03T02:27:18.498Z,-1.00
2022-12-03T02:29:51.864Z,-1.00
2022-12-03T02:32:24.414Z,-1.00
2022-12-03T02:34:57.198Z,-1.00
2022-12-03T02:37:34.899Z,-1.00
2022-12-03T02:40:12.623Z,-0.90
2022-12-03T02:42:45.772Z,-0.90
2022-12-03T02:45:26.504Z,-0.90
2022-12-03T02:48:00.947Z,-0.90
2022-12-03T02:50:37.281Z,-0.90
2022-12-03T02:53:14.254Z,-0.90
2022-12-03T02:55:48.936Z,-0.90
2022-12-03T02:58:23.000Z,-0.90
2022-12-03T03:00:56.469Z,-0.90
2022-12-03T03:03:31.075Z,-0.90
2022-12-03T03:06:07.048Z,-0.90
2022-12-03T03:08:40.393Z,-0.90
2022-12-03T03:11:13.399Z,-0.90
2022-12-03T03:13:46.133Z,-0.80
2022-12-03T03:16:19.007Z,-0.80
2022-12-03T03:18:51.559Z,-0.80
2022-12-03T03:21:24.739Z,-0.80
2022-12-03T03:23:57.272Z,-0.70
2022-12-03T03:26:30.195Z,-0.80
2022-12-03T03:29:03.166Z,-0.80
2022-12-03T03:31:36.382Z,-0.80
2022-12-03T03:34:09.629Z,-0.40
2022-12-03T03:36:42.808Z,-0.70
2022-12-03T03:39:15.411Z,-0.70
2022-12-03T03:41:48.404Z,-0.70
2022-12-03T03:44:21.006Z,-0.70
2022-12-03T03:46:54.418Z,-0.70
2022-12-03T03:49:27.599Z,-0.60
2022-12-03T03:52:00.444Z,-0.70
2022-12-03T03:54:33.286Z,-0.70
2022-12-03T03:57:06.408Z,-0.70
2022-12-03T03:59:38.900Z,-0.70
2022-12-03T04:02:22.694Z,-0.60
2022-12-03T04:04:55.427Z,-0.70
2022-12-03T04:07:28.866Z,-0.60
2022-12-03T04:10:21.359Z,-0.70
2022-12-03T04:12:56.882Z,-0.60
2022-12-03T04:15:29.609Z,-0.60
2022-12-03T04:18:21.226Z,-0.70
2022-12-03T04:21:13.672Z,-0.60
2022-12-03T04:23:46.449Z,-0.60
2022-12-03T04:26:37.384Z,-0.60
2022-12-03T04:29:10.242Z,-0.60
2022-12-03T04:32:01.844Z,-0.60
2022-12-03T04:34:53.705Z,-0.50
2022-12-03T04:37:26.509Z,-0.60
2022-12-03T04:39:59.302Z,-0.60
2022-12-03T04:42:31.819Z,-0.50
2022-12-03T04:45:04.959Z,-0.60
2022-12-03T04:47:40.020Z,-0.50
2022-12-03T04:50:12.975Z,-0.50
2022-12-03T04:52:45.436Z,-0.50
2022-12-03T04:55:18.254Z,-0.50
2022-12-03T04:57:50.804Z,-0.50
2022-12-03T05:00:23.675Z,-0.50
2022-12-03T05:02:56.249Z,-0.50
2022-12-03T05:05:29.217Z,-0.50
2022-12-03T05:08:01.775Z,-0.50
2022-12-03T05:10:34.574Z,-0.50
2022-12-03T05:13:07.068Z,-0.50
2022-12-03T05:15:39.862Z,-0.40
2022-12-03T05:18:12.343Z,-0.50
2022-12-03T05:20:51.451Z,-0.40
2022-12-03T05:23:25.931Z,-0.40
2022-12-03T05:25:58.634Z,-0.40
2022-12-03T05:28:31.147Z,-0.40
2022-12-03T05:31:05.123Z,-0.40
2022-12-03T05:33:43.753Z,-0.30
2022-12-03T05:36:17.126Z,-0.40
2022-12-03T05:38:49.621Z,0.00
2022-12-03T05:41:40.952Z,-0.30
2022-12-03T05:44:18.903Z,-0.40
2022-12-03T05:46:53.138Z,-0.40
2022-12-03T05:49:25.639Z,-0.30
2022-12-03T05:51:59.001Z,-0.40
2022-12-03T05:54:31.614Z,-0.40
2022-12-03T05:57:04.445Z,-0.40
2022-12-03T05:59:37.002Z,-0.30
2022-12-03T06:02:09.844Z,-0.40
2022-12-03T06:04:42.439Z,-0.40
2022-12-03T06:07:15.342Z,-0.30
2022-12-03T06:09:47.814Z,-0.30
2022-12-03T06:12:20.610Z,-0.40
2022-12-03T06:14:55.129Z,-0.40
2022-12-03T06:17:28.249Z,-0.30
2022-12-03T06:20:00.814Z,-0.40
2022-12-03T06:22:33.602Z,-0.40
2022-12-03T06:25:07.162Z,-0.40
2022-12-03T06:27:40.285Z,-0.40
2022-12-03T06:30:14.574Z,-0.40
2022-12-03T06:32:47.511Z,-0.40
2022-12-03T06:35:20.045Z,-0.40
2022-12-03T06:37:52.845Z,-0.30
2022-12-03T06:40:25.437Z,-0.40
2022-12-03T06:42:58.209Z,-0.40
2022-12-03T06:45:30.784Z,-0.40
2022-12-03T06:48:03.741Z,-0.40
2022-12-03T06:50:36.306Z,-0.40
2022-12-03T06:53:09.057Z,-0.40
2022-12-03T06:55:41.545Z,-0.40
2022-12-03T06:58:14.546Z,-0.50
2022-12-03T07:00:47.064Z,-0.50
2022-12-03T07:03:20.279Z,-0.40
2022-12-03T07:05:52.838Z,-0.40
2022-12-03T07:08:25.698Z,-0.40
2022-12-03T07:10:58.221Z,-0.30
2022-12-03T07:13:33.545Z,-0.30
2022-12-03T07:16:06.277Z,-0.30
2022-12-03T07:18:39.041Z,-0.30
2022-12-03T07:21:11.555Z,-0.30
2022-12-03T07:23:44.583Z,-0.20
2022-12-03T07:26:17.139Z,-0.20
2022-12-03T07:28:52.246Z,-0.30
2022-12-03T07:31:25.060Z,-0.20
2022-12-03T07:33:57.985Z,-0.10
2022-12-03T07:36:30.593Z,-0.10
2022-12-03T07:39:03.594Z,-0.10
2022-12-03T07:41:36.163Z,-0.10
2022-12-03T07:44:13.971Z,-0.10
2022-12-03T07:46:47.233Z,0.00
2022-12-03T07:49:20.191Z,0.00
2022-12-03T07:52:07.950Z,0.00
2022-12-03T07:54:40.710Z,0.00
2022-12-03T07:57:13.288Z,0.00
2022-12-03T07:59:46.398Z,0.00
2022-12-03T08:02:21.634Z,0.00
2022-12-03T08:04:55.879Z,0.00
2022-12-03T08:07:28.570Z,-0.10
2022-12-03T08:10:01.706Z,0.00
2022-12-03T08:12:40.407Z,-0.10
2022-12-03T08:15:16.444Z,-0.10
2022-12-03T08:17:55.946Z,-0.10
2022-12-03T08:20:39.898Z,-0.10
2022-12-03T08:23:20.889Z,-0.10
2022-12-03T08:25:53.768Z,-0.10
2022-12-03T08:28:27.162Z,-0.10
2022-12-03T08:31:26.895Z,0.00
2022-12-03T08:34:23.681Z,0.00
2022-12-03T08:37:05.839Z,0.00
2022-12-03T08:39:56.221Z,-0.10
2022-12-03T08:42:42.855Z,0.00
2022-12-03T08:45:32.023Z,0.10
2022-12-03T08:48:19.658Z,-0.10
2022-12-03T08:50:54.528Z,-0.10
2022-12-03T08:53:36.219Z,0.00
2022-12-03T08:56:20.925Z,0.00
2022-12-03T08:59:00.719Z,0.00
2022-12-03T09:01:44.446Z,0.00
2022-12-03T09:04:38.706Z,0.00
2022-12-03T09:07:11.259Z,0.00
2022-12-03T09:09:44.162Z,-0.10
2022-12-03T09:12:19.965Z,0.00
2022-12-03T09:14:52.959Z,0.50
2022-12-03T09:17:25.602Z,-0.10
2022-12-03T09:19:58.405Z,-0.10
2022-12-03T09:22:31.089Z,-0.10
2022-12-03T09:25:07.514Z,0.00
2022-12-03T09:27:40.024Z,0.00
2022-12-03T09:30:13.442Z,0.00
2022-12-03T09:32:45.975Z,0.10
2022-12-03T09:35:18.872Z,0.10
2022-12-03T09:37:51.489Z,0.20
2022-12-03T09:40:24.534Z,0.30
2022-12-03T09:42:59.756Z,0.20
2022-12-03T09:45:32.678Z,0.40
2022-12-03T09:48:05.373Z,0.40
2022-12-03T09:50:41.762Z,0.40
2022-12-03T09:53:18.585Z,0.50
2022-12-03T09:55:51.831Z,0.60
2022-12-03T09:58:31.701Z,0.60
2022-12-03T10:01:13.792Z,0.60
2022-12-03T10:03:51.294Z,0.60
2022-12-03T10:06:24.296Z,0.60
2022-12-03T10:08:57.127Z,0.70
2022-12-03T10:11:31.037Z,0.70
2022-12-03T10:14:04.473Z,0.70
2022-12-03T10:16:41.157Z,0.80
2022-12-03T10:19:21.908Z,0.80
2022-12-03T10:21:56.069Z,0.90
2022-12-03T10:24:31.727Z,0.90
2022-12-03T10:27:29.679Z,0.90
2022-12-03T10:30:05.387Z,0.90
2022-12-03T10:32:44.895Z,0.90
2022-12-03T10:35:43.652Z,1.00
2022-12-03T10:38:24.889Z,1.00
2022-12-03T10:40:57.644Z,1.00
2022-12-03T10:43:30.452Z,1.10
2022-12-03T10:46:04.528Z,1.20
2022-12-03T10:48:38.784Z,1.30
2022-12-03T10:51:21.882Z,1.30
2022-12-03T10:53:54.693Z,1.40
2022-12-03T10:56:27.850Z,1.50
2022-12-03T10:59:00.693Z,1.60
2022-12-03T11:01:33.305Z,1.70
2022-12-03T11:04:06.371Z,1.70
2022-12-03T11:06:39.015Z,1.80
2022-12-03T11:09:26.870Z,1.80
2022-12-03T11:12:07.442Z,1.90
2022-12-03T11:14:56.848Z,2.00
2022-12-03T11:17:41.231Z,2.10
2022-12-03T11:20:22.884Z,2.20
2022-12-03T11:22:59.718Z,2.30
2022-12-03T11:25:47.379Z,2.40
2022-12-03T11:28:19.960Z,2.40
2022-12-03T11:30:56.757Z,2.30
2022-12-03T11:33:34.857Z,2.20
2022-12-03T11:36:12.529Z,2.10
2022-12-03T11:38:52.906Z,2.10
2022-12-03T11:41:35.304Z,2.10
2022-12-03T11:44:30.592Z,2.10
2022-12-03T11:47:14.066Z,2.00
2022-12-03T11:49:47.856Z,2.00
2022-12-03T11:52:27.524Z,2.00
2022-12-03T11:55:13.910Z,1.80
2022-12-03T11:57:47.132Z,1.80
2022-12-03T12:00:24.573Z,1.80
2022-12-03T12:02:58.448Z,1.70
2022-12-03T12:05:33.396Z,1.60
2022-12-03T12:08:17.889Z,1.60
2022-12-03T12:10:50.515Z,1.60
2022-12-03T12:13:32.372Z,1.50
2022-12-03T12:16:06.951Z,1.50
2022-12-03T12:18:55.129Z,1.50
2022-12-03T12:21:44.316Z,1.60
2022-12-03T13:12:31.537Z,1.20
2022-12-03T13:15:18.932Z,1.50
2022-12-03T13:17:51.786Z,1.20
2022-12-03T13:20:24.692Z,1.20
2022-12-03T13:22:57.714Z,1.20
2022-12-03T13:25:59.317Z,1.20
2022-12-03T13:28:31.575Z,1.20
2022-12-03T13:31:23.257Z,0.60
2022-12-03T13:36:50.539Z,1.20
2022-12-03T13:39:37.214Z,1.10
2022-12-03T13:42:38.898Z,1.10
2022-12-03T13:45:14.697Z,1.20
2022-12-03T13:47:59.413Z,1.10
2022-12-03T13:50:44.572Z,1.10
2022-12-03T13:53:28.272Z,1.10
2022-12-03T13:56:27.571Z,1.10
2022-12-03T13:59:01.332Z,1.10
2022-12-03T14:01:34.681Z,1.00
2022-12-03T14:04:07.175Z,1.00
2022-12-03T14:06:40.176Z,1.00
2022-12-03T14:09:12.827Z,1.00
2022-12-03T14:12:04.370Z,1.00
2022-12-03T14:14:36.841Z,0.90
2022-12-03T14:17:11.737Z,1.00
2022-12-03T14:19:44.793Z,1.00
2022-12-03T14:22:19.439Z,0.90
2022-12-03T14:24:52.835Z,0.90
2022-12-03T14:27:25.718Z,1.00
2022-12-03T14:29:58.311Z,0.90
2022-12-03T14:32:31.114Z,0.90
2022-12-03T14:35:09.761Z,0.90
2022-12-03T14:37:42.893Z,0.90
2022-12-03T14:40:21.165Z,0.80
2022-12-03T14:42:54.640Z,0.90
2022-12-03T14:45:28.849Z,0.80
2022-12-03T14:48:02.029Z,0.80
2022-12-03T14:50:34.517Z,0.80
2022-12-03T14:53:07.331Z,0.80
2022-12-03T14:55:39.802Z,0.80
2022-12-03T14:58:12.898Z,0.80
2022-12-03T15:00:45.394Z,0.80
2022-12-03T15:03:18.362Z,0.80
2022-12-03T15:05:50.862Z,0.80
2022-12-03T15:08:23.613Z,0.80
2022-12-03T15:10:56.343Z,0.80
2022-12-03T15:13:29.211Z,0.80
2022-12-03T15:16:01.755Z,0.80
2022-12-03T15:18:34.986Z,0.80
2022-12-03T15:21:07.598Z,0.70
2022-12-03T15:23:40.427Z,0.70
2022-12-03T15:26:13.044Z,0.70
2022-12-03T15:28:48.419Z,0.70
2022-12-03T15:31:23.043Z,0.70
2022-12-03T15:33:56.219Z,0.70
2022-12-03T15:36:28.803Z,0.70
2022-12-03T15:39:01.671Z,0.70
2022-12-03T15:41:34.251Z,0.70
2022-12-03T15:44:07.059Z,0.70
2022-12-03T15:46:39.592Z,0.70
2022-12-03T15:49:12.499Z,0.70
2022-12-03T15:51:45.017Z,0.70
2022-12-03T15:54:17.818Z,0.70
2022-12-03T15:56:55.529Z,0.70
2022-12-03T15:59:30.167Z,0.70
2022-12-03T16:02:02.786Z,0.70
2022-12-03T16:04:35.756Z,0.60
2022-12-03T16:07:09.507Z,0.70
2022-12-03T16:09:42.338Z,0.70
2022-12-03T16:12:14.816Z,0.60
2022-12-03T16:14:47.578Z,0.70
2022-12-03T16:17:20.309Z,0.70
2022-12-03T16:19:53.349Z,0.70
2022-12-03T16:22:26.032Z,0.70
2022-12-03T16:24:58.939Z,0.70
2022-12-03T16:27:31.467Z,0.80
2022-12-03T16:30:06.347Z,0.70
2022-12-03T16:32:39.327Z,0.70
2022-12-03T16:35:12.142Z,0.80
2022-12-03T16:37:44.756Z,0.70
2022-12-03T16:40:17.683Z,0.80
2022-12-03T16:42:50.205Z,0.70
2022-12-03T16:45:33.981Z,0.70
2022-12-03T16:48:06.588Z,0.70
2022-12-03T16:50:40.042Z,0.80
2022-12-03T16:53:13.255Z,0.80
2022-12-03T16:55:45.994Z,0.80
2022-12-03T16:58:21.286Z,0.80
2022-12-03T17:00:54.321Z,0.80
2022-12-03T17:03:33.395Z,0.80
2022-12-03T17:06:07.009Z,0.80
2022-12-03T17:08:41.065Z,0.90
2022-12-03T17:11:17.918Z,0.80
2022-12-03T17:13:50.407Z,0.80
2022-12-03T17:16:23.390Z,0.90
2022-12-03T17:18:56.376Z,0.90
2022-12-03T17:21:33.572Z,0.90
2022-12-03T17:24:07.752Z,0.90
2022-12-03T17:26:42.031Z,0.90
2022-12-03T17:29:14.636Z,0.90
2022-12-03T17:31:47.446Z,0.90
2022-12-03T17:34:19.968Z,0.90
2022-12-03T17:36:52.726Z,0.90
2022-12-03T17:39:25.261Z,0.90
2022-12-03T17:41:58.197Z,0.90
2022-12-03T17:44:30.910Z,0.90
2022-12-03T17:47:03.826Z,0.90
2022-12-03T17:49:36.516Z,1.00
2022-12-03T17:52:09.443Z,0.90
2022-12-03T17:55:08.970Z,1.00
2022-12-03T17:57:34.726Z,1.00
2022-12-03T18:00:08.031Z,1.00
2022-12-03T18:02:40.887Z,1.00
2022-12-03T18:05:14.207Z,1.00
2022-12-03T18:07:47.248Z,1.00
2022-12-03T18:10:19.814Z,1.00
2022-12-03T18:12:54.882Z,1.00
2022-12-03T18:15:31.702Z,1.00
2022-12-03T18:18:04.608Z,1.00
2022-12-03T18:20:37.692Z,1.00
2022-12-03T18:23:10.530Z,1.00
2022-12-03T18:25:43.122Z,1.00
2022-12-03T18:28:15.846Z,1.00
2022-12-03T18:30:52.534Z,1.10
2022-12-03T18:33:26.626Z,1.00
2022-12-03T18:35:59.211Z,1.10
2022-12-03T18:38:33.985Z,1.10
2022-12-03T18:41:06.531Z,1.10
2022-12-03T18:43:42.443Z,1.10
2022-12-03T18:46:45.086Z,1.10
2022-12-03T18:49:09.477Z,1.10
2022-12-03T18:51:41.933Z,1.10
2022-12-03T18:54:14.949Z,1.10
2022-12-03T18:56:47.422Z,1.10
2022-12-03T18:59:20.214Z,1.10
2022-12-03T19:01:52.802Z,1.10
2022-12-03T19:04:25.753Z,1.10
2022-12-03T19:06:58.458Z,1.10
2022-12-03T19:09:31.189Z,1.20
2022-12-03T19:12:03.853Z,1.20
2022-12-03T19:14:36.904Z,1.30
2022-12-03T19:17:09.784Z,1.20
2022-12-03T19:19:42.529Z,1.20
2022-12-03T19:22:15.005Z,1.20
2022-12-03T19:24:47.760Z,1.20
2022-12-03T19:27:20.315Z,1.30
2022-12-03T19:29:53.389Z,1.30
2022-12-03T19:32:26.278Z,1.30
2022-12-03T19:35:01.061Z,1.30
2022-12-03T19:37:34.021Z,1.30
2022-12-03T19:40:07.705Z,1.30
2022-12-03T19:42:40.386Z,1.30
2022-12-03T19:45:13.386Z,1.30
2022-12-03T19:47:45.848Z,1.40
2022-12-03T19:50:23.048Z,1.30
2022-12-03T19:52:56.590Z,1.30
2022-12-03T19:55:29.365Z,1.30
2022-12-03T19:58:01.841Z,1.30
2022-12-03T20:00:35.775Z,1.40
2022-12-03T20:03:08.392Z,1.40
2022-12-03T20:05:41.470Z,1.40
2022-12-03T20:08:14.064Z,1.40
2022-12-03T20:10:46.867Z,1.40
2022-12-03T20:13:19.340Z,1.40
2022-12-03T20:15:52.088Z,1.50
2022-12-03T20:18:24.542Z,1.50
2022-12-03T20:20:59.128Z,1.50
2022-12-03T20:23:31.674Z,1.50
2022-12-03T20:26:12.183Z,1.50
2022-12-03T20:28:45.507Z,1.50
2022-12-03T20:31:20.508Z,1.50
2022-12-03T20:33:56.543Z,1.50
2022-12-03T20:36:30.981Z,1.60
2022-12-03T20:39:05.933Z,1.60
2022-12-03T20:41:38.757Z,1.60
2022-12-03T20:44:11.283Z,1.60
2022-12-03T20:46:44.111Z,1.60
2022-12-03T20:49:16.736Z,1.60
2022-12-03T20:51:50.358Z,1.60
2022-12-03T20:54:22.987Z,1.60
2022-12-03T20:56:55.743Z,1.60
2022-12-03T20:59:28.190Z,1.60
2022-12-03T21:02:01.336Z,1.60
2022-12-03T21:04:34.045Z,1.60
2022-12-03T21:07:06.826Z,1.60
2022-12-03T21:09:39.337Z,1.60
2022-12-03T21:12:12.078Z,1.60
2022-12-03T21:14:44.626Z,1.60
2022-12-03T21:17:17.731Z,1.60
2022-12-03T21:19:52.622Z,1.70
2022-12-03T21:22:25.728Z,1.70
2022-12-03T21:24:58.187Z,1.70
2022-12-03T21:27:31.163Z,1.70
2022-12-03T21:30:04.123Z,1.70
2022-12-03T21:32:36.932Z,1.80
2022-12-03T21:35:09.712Z,1.80
2022-12-03T21:37:42.512Z,1.80
2022-12-03T21:40:15.603Z,1.80
2022-12-03T21:42:48.689Z,1.80
2022-12-03T21:45:21.411Z,1.80
2022-12-03T21:47:54.309Z,1.80
2022-12-03T21:50:26.863Z,1.80
2022-12-03T21:52:59.701Z,1.80
2022-12-03T21:55:32.409Z,1.80
2022-12-03T21:58:05.163Z,1.80
2022-12-03T22:00:40.258Z,1.80
2022-12-03T22:03:13.120Z,1.80
2022-12-03T22:05:45.667Z,1.80
2022-12-03T22:08:18.648Z,1.80
2022-12-03T22:10:51.237Z,1.90
2022-12-03T22:13:24.020Z,1.90
2022-12-03T22:15:56.511Z,1.90
2022-12-03T22:18:29.312Z,1.90
2022-12-03T22:21:07.403Z,1.90
2022-12-03T22:23:40.226Z,1.90
2022-12-03T22:26:15.095Z,1.90
2022-12-03T22:28:49.814Z,1.90
2022-12-03T22:31:22.349Z,1.90
2022-12-03T22:33:55.261Z,1.90
2022-12-03T22:36:27.742Z,2.00
2022-12-03T22:39:00.530Z,2.00
2022-12-03T22:41:36.069Z,2.00
2022-12-03T22:44:08.921Z,2.00
2022-12-03T22:46:41.547Z,2.00
2022-12-03T22:49:14.422Z,2.00
2022-12-03T22:51:47.452Z,2.00
2022-12-03T22:54:23.926Z,2.00
2022-12-03T22:56:59.447Z,2.10
2022-12-03T22:59:32.271Z,2.10
2022-12-03T23:02:04.833Z,2.10
2022-12-03T23:04:37.635Z,2.10
2022-12-03T23:07:10.172Z,2.10
2022-12-03T23:09:45.351Z,2.10
2022-12-03T23:12:18.060Z,2.10
2022-12-03T23:14:56.708Z,2.10
2022-12-03T23:17:29.262Z,2.10
2022-12-03T23:20:03.559Z,2.10
2022-12-03T23:22:36.046Z,2.20
2022-12-03T23:25:11.385Z,2.10
2022-12-03T23:27:44.625Z,2.20
2022-12-03T23:30:17.459Z,2.20
2022-12-03T23:32:51.804Z,2.20
2022-12-03T23:35:24.572Z,2.20
2022-12-03T23:37:57.178Z,2.20
2022-12-03T23:40:29.924Z,2.20
2022-12-03T23:43:02.541Z,2.20
2022-12-03T23:45:35.385Z,2.20
2022-12-03T23:48:07.899Z,2.20
2022-12-03T23:50:41.398Z,2.20
2022-12-03T23:53:13.984Z,2.20
2022-12-03T23:55:46.739Z,2.20
2022-12-03T23:58:19.212Z,2.30
